Weather at Blaise Diagne International Airport

Public forecast

Using degrees Celsius for public forecast. Weather courtesy of forecast.io.

Current aviation weather report (METAR) for Blaise Diagne International Airport

2024/04/22 05:30 (retrieved 58 minutes ago)

GOBD 220530Z 31009KT 7000 SCT013 20/17 Q1009 NOSIG

Aviation forecast (TAF) for Blaise Diagne International Airport

2024/04/22 06:00 (retrieved 28 minutes ago)

TAF GOOY 220500Z 2206/2312 30008KT CAVOK TAF GOBD 220500Z 2206/2312 32010KT 8000 SCT013